sensor_id;sensor_type;location;lat;lon;timestamp;temperature;humidity
73750;SHT30;62058;48.406;-4.514;2022-10-15T00:02:16;15.91;89.62
73750;SHT30;62058;48.406;-4.514;2022-10-15T00:04:42;15.93;89.47
73750;SHT30;62058;48.406;-4.514;2022-10-15T00:07:07;15.96;89.70
73750;SHT30;62058;48.406;-4.514;2022-10-15T00:09:33;15.93;89.75
73750;SHT30;62058;48.406;-4.514;2022-10-15T00:11:58;15.96;89.47
73750;SHT30;62058;48.406;-4.514;2022-10-15T00:14:23;15.96;89.44
73750;SHT30;62058;48.406;-4.514;2022-10-15T00:16:49;16.00;89.33
73750;SHT30;62058;48.406;-4.514;2022-10-15T00:19:14;15.90;89.23
73750;SHT30;62058;48.406;-4.514;2022-10-15T00:21:39;15.90;89.71
73750;SHT30;62058;48.406;-4.514;2022-10-15T00:24:05;15.87;89.52
73750;SHT30;62058;48.406;-4.514;2022-10-15T00:26:31;15.87;89.30
73750;SHT30;62058;48.406;-4.514;2022-10-15T00:29:01;15.83;89.54
73750;SHT30;62058;48.406;-4.514;2022-10-15T00:31:28;15.83;89.68
73750;SHT30;62058;48.406;-4.514;2022-10-15T00:33:56;15.83;89.45
73750;SHT30;62058;48.406;-4.514;2022-10-15T00:36:28;15.87;89.56
73750;SHT30;62058;48.406;-4.514;2022-10-15T00:38:54;15.87;89.61
73750;SHT30;62058;48.406;-4.514;2022-10-15T00:41:25;15.86;89.56
73750;SHT30;62058;48.406;-4.514;2022-10-15T00:43:57;15.86;89.70
73750;SHT30;62058;48.406;-4.514;2022-10-15T00:46:30;15.85;89.61
73750;SHT30;62058;48.406;-4.514;2022-10-15T00:49:01;15.83;89.44
73750;SHT30;62058;48.406;-4.514;2022-10-15T00:51:37;15.74;89.65
73750;SHT30;62058;48.406;-4.514;2022-10-15T00:54:04;15.79;90.17
73750;SHT30;62058;48.406;-4.514;2022-10-15T00:56:31;15.78;89.91
73750;SHT30;62058;48.406;-4.514;2022-10-15T00:58:57;15.80;89.89
73750;SHT30;62058;48.406;-4.514;2022-10-15T01:01:23;15.73;89.62
73750;SHT30;62058;48.406;-4.514;2022-10-15T01:03:51;15.76;90.12
73750;SHT30;62058;48.406;-4.514;2022-10-15T01:06:17;15.76;90.08
73750;SHT30;62058;48.406;-4.514;2022-10-15T01:08:43;15.78;90.10
73750;SHT30;62058;48.406;-4.514;2022-10-15T01:27:33;15.63;90.34
73750;SHT30;62058;48.406;-4.514;2022-10-15T01:33:03;15.66;90.42
73750;SHT30;62058;48.406;-4.514;2022-10-15T01:35:56;15.67;89.98
73750;SHT30;62058;48.406;-4.514;2022-10-15T01:43:42;15.69;90.14
73750;SHT30;62058;48.406;-4.514;2022-10-15T01:46:20;15.69;90.04
73750;SHT30;62058;48.406;-4.514;2022-10-15T01:48:49;15.69;89.92
73750;SHT30;62058;48.406;-4.514;2022-10-15T01:51:17;15.70;89.77
73750;SHT30;62058;48.406;-4.514;2022-10-15T01:53:44;15.73;89.77
73750;SHT30;62058;48.406;-4.514;2022-10-15T01:56:14;15.73;89.82
73750;SHT30;62058;48.406;-4.514;2022-10-15T01:58:43;15.74;89.95
73750;SHT30;62058;48.406;-4.514;2022-10-15T02:01:10;15.72;89.48
73750;SHT30;62058;48.406;-4.514;2022-10-15T02:03:50;15.67;89.78
73750;SHT30;62058;48.406;-4.514;2022-10-15T02:11:24;15.55;90.17
73750;SHT30;62058;48.406;-4.514;2022-10-15T02:14:03;15.55;90.35
73750;SHT30;62058;48.406;-4.514;2022-10-15T02:21:46;15.58;90.41
73750;SHT30;62058;48.406;-4.514;2022-10-15T02:24:13;15.65;90.23
73750;SHT30;62058;48.406;-4.514;2022-10-15T02:26:40;15.66;90.06
73750;SHT30;62058;48.406;-4.514;2022-10-15T02:29:10;15.69;90.33
73750;SHT30;62058;48.406;-4.514;2022-10-15T02:31:38;15.70;90.26
73750;SHT30;62058;48.406;-4.514;2022-10-15T02:34:08;15.72;90.52
73750;SHT30;62058;48.406;-4.514;2022-10-15T02:36:38;15.72;90.65
73750;SHT30;62058;48.406;-4.514;2022-10-15T02:39:04;15.70;90.75
73750;SHT30;62058;48.406;-4.514;2022-10-15T02:41:33;15.76;90.49
73750;SHT30;62058;48.406;-4.514;2022-10-15T02:43:59;15.80;90.39
73750;SHT30;62058;48.406;-4.514;2022-10-15T02:46:25;15.78;90.44
73750;SHT30;62058;48.406;-4.514;2022-10-15T02:48:50;15.76;90.55
73750;SHT30;62058;48.406;-4.514;2022-10-15T02:51:16;15.74;90.63
73750;SHT30;62058;48.406;-4.514;2022-10-15T02:53:41;15.73;90.61
73750;SHT30;62058;48.406;-4.514;2022-10-15T02:56:07;15.78;90.67
73750;SHT30;62058;48.406;-4.514;2022-10-15T02:58:32;15.78;90.63
73750;SHT30;62058;48.406;-4.514;2022-10-15T03:00:57;15.73;90.86
73750;SHT30;62058;48.406;-4.514;2022-10-15T03:03:23;15.66;91.06
73750;SHT30;62058;48.406;-4.514;2022-10-15T03:05:48;15.60;90.74
73750;SHT30;62058;48.406;-4.514;2022-10-15T03:08:13;15.56;91.09
73750;SHT30;62058;48.406;-4.514;2022-10-15T03:10:39;15.48;91.20
73750;SHT30;62058;48.406;-4.514;2022-10-15T03:13:05;15.40;91.53
73750;SHT30;62058;48.406;-4.514;2022-10-15T03:15:31;15.32;91.22
73750;SHT30;62058;48.406;-4.514;2022-10-15T03:17:56;15.25;91.86
73750;SHT30;62058;48.406;-4.514;2022-10-15T03:20:22;15.24;91.59
73750;SHT30;62058;48.406;-4.514;2022-10-15T03:22:47;15.19;91.97
73750;SHT30;62058;48.406;-4.514;2022-10-15T03:25:13;15.14;91.32
73750;SHT30;62058;48.406;-4.514;2022-10-15T03:27:38;15.08;92.09
73750;SHT30;62058;48.406;-4.514;2022-10-15T03:30:04;15.04;92.17
73750;SHT30;62058;48.406;-4.514;2022-10-15T03:32:29;15.04;92.17
73750;SHT30;62058;48.406;-4.514;2022-10-15T03:34:55;15.02;91.78
73750;SHT30;62058;48.406;-4.514;2022-10-15T03:37:20;15.02;92.08
73750;SHT30;62058;48.406;-4.514;2022-10-15T03:39:45;15.05;91.86
73750;SHT30;62058;48.406;-4.514;2022-10-15T03:42:11;15.08;91.67
73750;SHT30;62058;48.406;-4.514;2022-10-15T03:44:36;15.12;91.45
73750;SHT30;62058;48.406;-4.514;2022-10-15T03:47:02;15.12;91.30
73750;SHT30;62058;48.406;-4.514;2022-10-15T03:49:27;15.12;91.30
73750;SHT30;62058;48.406;-4.514;2022-10-15T03:51:52;15.15;91.05
73750;SHT30;62058;48.406;-4.514;2022-10-15T03:54:18;15.21;91.02
73750;SHT30;62058;48.406;-4.514;2022-10-15T03:56:43;15.21;90.99
73750;SHT30;62058;48.406;-4.514;2022-10-15T03:59:08;15.19;90.99
73750;SHT30;62058;48.406;-4.514;2022-10-15T04:01:34;15.14;91.05
73750;SHT30;62058;48.406;-4.514;2022-10-15T04:03:59;15.19;91.19
73750;SHT30;62058;48.406;-4.514;2022-10-15T04:06:24;15.24;91.24
73750;SHT30;62058;48.406;-4.514;2022-10-15T04:08:50;15.25;91.28
73750;SHT30;62058;48.406;-4.514;2022-10-15T04:11:15;15.25;91.45
73750;SHT30;62058;48.406;-4.514;2022-10-15T04:13:41;15.28;91.42
73750;SHT30;62058;48.406;-4.514;2022-10-15T04:16:06;15.32;91.40
73750;SHT30;62058;48.406;-4.514;2022-10-15T04:18:32;15.25;91.71
73750;SHT30;62058;48.406;-4.514;2022-10-15T04:20:58;15.27;91.89
73750;SHT30;62058;48.406;-4.514;2022-10-15T04:23:24;15.25;91.85
73750;SHT30;62058;48.406;-4.514;2022-10-15T04:25:49;15.25;91.96
73750;SHT30;62058;48.406;-4.514;2022-10-15T04:28:14;15.28;91.89
73750;SHT30;62058;48.406;-4.514;2022-10-15T04:30:40;15.25;92.13
73750;SHT30;62058;48.406;-4.514;2022-10-15T04:33:05;15.25;92.18
73750;SHT30;62058;48.406;-4.514;2022-10-15T04:35:31;15.24;92.26
73750;SHT30;62058;48.406;-4.514;2022-10-15T04:37:57;15.18;92.32
73750;SHT30;62058;48.406;-4.514;2022-10-15T04:40:23;15.12;92.59
73750;SHT30;62058;48.406;-4.514;2022-10-15T04:42:49;15.07;92.54
73750;SHT30;62058;48.406;-4.514;2022-10-15T04:45:15;15.08;92.55
73750;SHT30;62058;48.406;-4.514;2022-10-15T04:47:40;15.01;92.52
73750;SHT30;62058;48.406;-4.514;2022-10-15T04:50:05;14.98;92.57
73750;SHT30;62058;48.406;-4.514;2022-10-15T04:52:33;14.97;92.64
73750;SHT30;62058;48.406;-4.514;2022-10-15T04:54:58;14.98;92.29
73750;SHT30;62058;48.406;-4.514;2022-10-15T04:57:24;14.95;92.55
73750;SHT30;62058;48.406;-4.514;2022-10-15T04:59:51;14.91;92.51
73750;SHT30;62058;48.406;-4.514;2022-10-15T05:02:17;14.85;92.45
73750;SHT30;62058;48.406;-4.514;2022-10-15T05:04:42;14.88;92.64
73750;SHT30;62058;48.406;-4.514;2022-10-15T05:07:08;14.87;92.67
73750;SHT30;62058;48.406;-4.514;2022-10-15T05:09:33;14.81;92.66
73750;SHT30;62058;48.406;-4.514;2022-10-15T05:11:58;14.80;92.90
73750;SHT30;62058;48.406;-4.514;2022-10-15T05:14:24;14.81;92.74
73750;SHT30;62058;48.406;-4.514;2022-10-15T05:16:49;14.80;92.72
73750;SHT30;62058;48.406;-4.514;2022-10-15T05:19:15;14.76;92.95
73750;SHT30;62058;48.406;-4.514;2022-10-15T05:21:42;14.78;92.82
73750;SHT30;62058;48.406;-4.514;2022-10-15T05:24:08;14.76;92.74
73750;SHT30;62058;48.406;-4.514;2022-10-15T05:26:34;14.71;93.17
73750;SHT30;62058;48.406;-4.514;2022-10-15T05:29:00;14.73;92.83
73750;SHT30;62058;48.406;-4.514;2022-10-15T05:31:28;14.70;93.16
73750;SHT30;62058;48.406;-4.514;2022-10-15T05:33:54;14.67;93.15
73750;SHT30;62058;48.406;-4.514;2022-10-15T05:36:27;14.67;93.16
73750;SHT30;62058;48.406;-4.514;2022-10-15T05:39:00;14.66;92.85
73750;SHT30;62058;48.406;-4.514;2022-10-15T05:41:26;14.66;93.10
73750;SHT30;62058;48.406;-4.514;2022-10-15T05:43:53;14.63;92.74
73750;SHT30;62058;48.406;-4.514;2022-10-15T05:46:19;14.59;93.31
73750;SHT30;62058;48.406;-4.514;2022-10-15T05:48:53;14.56;93.24
73750;SHT30;62058;48.406;-4.514;2022-10-15T05:51:19;14.57;93.01
73750;SHT30;62058;48.406;-4.514;2022-10-15T05:53:44;14.56;93.17
73750;SHT30;62058;48.406;-4.514;2022-10-15T05:56:13;14.56;93.01
73750;SHT30;62058;48.406;-4.514;2022-10-15T05:58:39;14.51;92.92
73750;SHT30;62058;48.406;-4.514;2022-10-15T06:01:08;14.53;92.82
73750;SHT30;62058;48.406;-4.514;2022-10-15T06:03:34;14.47;93.06
73750;SHT30;62058;48.406;-4.514;2022-10-15T06:06:00;14.48;92.80
73750;SHT30;62058;48.406;-4.514;2022-10-15T06:08:27;14.47;92.95
73750;SHT30;62058;48.406;-4.514;2022-10-15T06:10:52;14.46;93.02
73750;SHT30;62058;48.406;-4.514;2022-10-15T06:13:18;14.46;92.93
73750;SHT30;62058;48.406;-4.514;2022-10-15T06:15:44;14.44;92.74
73750;SHT30;62058;48.406;-4.514;2022-10-15T06:18:11;14.43;92.85
73750;SHT30;62058;48.406;-4.514;2022-10-15T06:20:42;14.38;93.27
73750;SHT30;62058;48.406;-4.514;2022-10-15T06:23:09;14.37;93.24
73750;SHT30;62058;48.406;-4.514;2022-10-15T06:25:35;14.40;92.89
73750;SHT30;62058;48.406;-4.514;2022-10-15T06:28:02;14.36;93.09
73750;SHT30;62058;48.406;-4.514;2022-10-15T06:30:28;14.37;93.25
73750;SHT30;62058;48.406;-4.514;2022-10-15T06:32:54;14.37;93.13
73750;SHT30;62058;48.406;-4.514;2022-10-15T06:35:21;14.40;92.85
73750;SHT30;62058;48.406;-4.514;2022-10-15T06:37:47;14.37;92.98
73750;SHT30;62058;48.406;-4.514;2022-10-15T06:40:13;14.43;92.79
73750;SHT30;62058;48.406;-4.514;2022-10-15T06:42:39;14.41;92.80
73750;SHT30;62058;48.406;-4.514;2022-10-15T06:45:05;14.41;93.11
73750;SHT30;62058;48.406;-4.514;2022-10-15T06:47:32;14.41;93.08
73750;SHT30;62058;48.406;-4.514;2022-10-15T06:49:57;14.43;92.92
73750;SHT30;62058;48.406;-4.514;2022-10-15T06:52:23;14.43;92.84
73750;SHT30;62058;48.406;-4.514;2022-10-15T06:54:49;14.47;92.35
73750;SHT30;62058;48.406;-4.514;2022-10-15T06:57:15;14.53;92.01
73750;SHT30;62058;48.406;-4.514;2022-10-15T06:59:41;14.57;91.94
73750;SHT30;62058;48.406;-4.514;2022-10-15T07:02:08;14.59;91.72
73750;SHT30;62058;48.406;-4.514;2022-10-15T07:04:33;14.60;91.60
73750;SHT30;62058;48.406;-4.514;2022-10-15T07:06:59;14.63;91.49
73750;SHT30;62058;48.406;-4.514;2022-10-15T07:09:24;14.70;91.48
73750;SHT30;62058;48.406;-4.514;2022-10-15T07:11:51;14.71;91.15
73750;SHT30;62058;48.406;-4.514;2022-10-15T07:14:16;14.74;91.11
73750;SHT30;62058;48.406;-4.514;2022-10-15T07:16:42;14.80;90.42
73750;SHT30;62058;48.406;-4.514;2022-10-15T07:19:07;14.81;90.92
73750;SHT30;62058;48.406;-4.514;2022-10-15T07:21:33;14.85;90.34
73750;SHT30;62058;48.406;-4.514;2022-10-15T07:23:58;14.85;90.31
73750;SHT30;62058;48.406;-4.514;2022-10-15T07:26:25;14.88;90.92
73750;SHT30;62058;48.406;-4.514;2022-10-15T07:28:53;14.88;90.65
73750;SHT30;62058;48.406;-4.514;2022-10-15T07:31:19;14.88;90.49
73750;SHT30;62058;48.406;-4.514;2022-10-15T07:33:44;14.94;90.79
73750;SHT30;62058;48.406;-4.514;2022-10-15T07:36:10;14.99;90.70
73750;SHT30;62058;48.406;-4.514;2022-10-15T07:38:37;15.05;90.17
73750;SHT30;62058;48.406;-4.514;2022-10-15T07:41:05;15.12;90.25
73750;SHT30;62058;48.406;-4.514;2022-10-15T07:43:32;15.21;90.20
73750;SHT30;62058;48.406;-4.514;2022-10-15T07:45:58;15.28;89.57
73750;SHT30;62058;48.406;-4.514;2022-10-15T07:48:24;15.40;89.37
73750;SHT30;62058;48.406;-4.514;2022-10-15T07:50:54;15.45;88.99
73750;SHT30;62058;48.406;-4.514;2022-10-15T07:53:19;15.49;89.10
73750;SHT30;62058;48.406;-4.514;2022-10-15T07:55:44;15.58;89.09
73750;SHT30;62058;48.406;-4.514;2022-10-15T07:58:10;15.63;87.98
73750;SHT30;62058;48.406;-4.514;2022-10-15T08:00:35;15.66;87.92
73750;SHT30;62058;48.406;-4.514;2022-10-15T08:03:00;15.62;88.10
73750;SHT30;62058;48.406;-4.514;2022-10-15T08:05:26;15.53;87.90
73750;SHT30;62058;48.406;-4.514;2022-10-15T08:07:51;15.49;88.26
73750;SHT30;62058;48.406;-4.514;2022-10-15T08:10:17;15.53;88.31
73750;SHT30;62058;48.406;-4.514;2022-10-15T08:12:43;15.58;88.58
73750;SHT30;62058;48.406;-4.514;2022-10-15T08:15:08;15.59;88.31
73750;SHT30;62058;48.406;-4.514;2022-10-15T08:17:34;15.58;87.16
73750;SHT30;62058;48.406;-4.514;2022-10-15T08:19:59;15.62;87.54
73750;SHT30;62058;48.406;-4.514;2022-10-15T08:22:25;15.59;87.21
73750;SHT30;62058;48.406;-4.514;2022-10-15T08:24:50;15.59;87.45
73750;SHT30;62058;48.406;-4.514;2022-10-15T08:27:16;15.58;86.94
73750;SHT30;62058;48.406;-4.514;2022-10-15T08:29:42;15.55;86.84
73750;SHT30;62058;48.406;-4.514;2022-10-15T08:32:07;15.58;86.59
73750;SHT30;62058;48.406;-4.514;2022-10-15T08:34:33;15.59;86.28
73750;SHT30;62058;48.406;-4.514;2022-10-15T08:36:58;15.63;86.21
73750;SHT30;62058;48.406;-4.514;2022-10-15T08:39:23;15.70;86.36
73750;SHT30;62058;48.406;-4.514;2022-10-15T08:41:53;15.74;86.10
73750;SHT30;62058;48.406;-4.514;2022-10-15T08:44:38;15.83;85.40
73750;SHT30;62058;48.406;-4.514;2022-10-15T08:47:08;15.93;85.47
73750;SHT30;62058;48.406;-4.514;2022-10-15T08:49:51;15.99;85.02
73750;SHT30;62058;48.406;-4.514;2022-10-15T08:52:19;16.01;84.33
73750;SHT30;62058;48.406;-4.514;2022-10-15T08:54:45;16.09;84.44
73750;SHT30;62058;48.406;-4.514;2022-10-15T08:57:34;16.06;83.59
73750;SHT30;62058;48.406;-4.514;2022-10-15T09:00:20;16.10;83.77
73750;SHT30;62058;48.406;-4.514;2022-10-15T09:03:06;16.14;83.59
73750;SHT30;62058;48.406;-4.514;2022-10-15T09:05:49;16.13;83.18
73750;SHT30;62058;48.406;-4.514;2022-10-15T09:10:49;16.16;82.99
73750;SHT30;62058;48.406;-4.514;2022-10-15T09:15:57;16.34;83.45
73750;SHT30;62058;48.406;-4.514;2022-10-15T09:18:29;16.40;82.96
73750;SHT30;62058;48.406;-4.514;2022-10-15T09:20:56;16.50;82.69
73750;SHT30;62058;48.406;-4.514;2022-10-15T09:23:25;16.62;83.20
73750;SHT30;62058;48.406;-4.514;2022-10-15T09:26:42;16.68;82.34
73750;SHT30;62058;48.406;-4.514;2022-10-15T09:28:55;16.78;83.14
73750;SHT30;62058;48.406;-4.514;2022-10-15T09:31:29;16.92;82.41
73750;SHT30;62058;48.406;-4.514;2022-10-15T09:34:10;17.04;81.35
73750;SHT30;62058;48.406;-4.514;2022-10-15T09:36:48;17.13;81.52
73750;SHT30;62058;48.406;-4.514;2022-10-15T09:39:46;17.19;80.72
73750;SHT30;62058;48.406;-4.514;2022-10-15T09:42:29;17.27;81.91
73750;SHT30;62058;48.406;-4.514;2022-10-15T09:45:02;17.36;81.41
73750;SHT30;62058;48.406;-4.514;2022-10-15T09:47:33;17.43;79.28
73750;SHT30;62058;48.406;-4.514;2022-10-15T09:49:59;17.60;79.51
73750;SHT30;62058;48.406;-4.514;2022-10-15T09:54:57;18.05;79.51
73750;SHT30;62058;48.406;-4.514;2022-10-15T09:57:27;17.88;77.77
73750;SHT30;62058;48.406;-4.514;2022-10-15T09:59:59;17.88;80.08
73750;SHT30;62058;48.406;-4.514;2022-10-15T10:02:28;17.76;81.11
73750;SHT30;62058;48.406;-4.514;2022-10-15T10:04:54;17.69;81.77
73750;SHT30;62058;48.406;-4.514;2022-10-15T10:07:34;17.56;81.64
73750;SHT30;62058;48.406;-4.514;2022-10-15T10:10:06;17.36;81.48
73750;SHT30;62058;48.406;-4.514;2022-10-15T10:12:45;17.33;81.78
73750;SHT30;62058;48.406;-4.514;2022-10-15T10:15:31;17.32;81.95
73750;SHT30;62058;48.406;-4.514;2022-10-15T10:17:58;17.33;81.14
73750;SHT30;62058;48.406;-4.514;2022-10-15T10:20:26;17.30;81.36
73750;SHT30;62058;48.406;-4.514;2022-10-15T10:23:00;17.22;81.44
73750;SHT30;62058;48.406;-4.514;2022-10-15T10:27:52;17.26;81.09
73750;SHT30;62058;48.406;-4.514;2022-10-15T10:30:18;17.35;82.85
73750;SHT30;62058;48.406;-4.514;2022-10-15T10:32:44;17.49;80.82
73750;SHT30;62058;48.406;-4.514;2022-10-15T10:35:22;17.70;81.36
73750;SHT30;62058;48.406;-4.514;2022-10-15T10:37:48;17.81;80.11
73750;SHT30;62058;48.406;-4.514;2022-10-15T10:40:27;17.96;79.45
73750;SHT30;62058;48.406;-4.514;2022-10-15T10:46:02;18.34;77.91
73750;SHT30;62058;48.406;-4.514;2022-10-15T10:51:14;18.68;76.30
73750;SHT30;62058;48.406;-4.514;2022-10-15T10:56:12;18.61;75.56
73750;SHT30;62058;48.406;-4.514;2022-10-15T10:58:40;18.42;75.08
73750;SHT30;62058;48.406;-4.514;2022-10-15T11:01:10;18.41;75.18
73750;SHT30;62058;48.406;-4.514;2022-10-15T11:03:38;18.53;75.61
73750;SHT30;62058;48.406;-4.514;2022-10-15T11:06:25;18.53;75.10
73750;SHT30;62058;48.406;-4.514;2022-10-15T11:09:04;18.55;76.00
73750;SHT30;62058;48.406;-4.514;2022-10-15T11:12:00;18.38;75.06
73750;SHT30;62058;48.406;-4.514;2022-10-15T11:19:49;18.39;76.80
73750;SHT30;62058;48.406;-4.514;2022-10-15T11:25:04;18.21;77.16
73750;SHT30;62058;48.406;-4.514;2022-10-15T11:27:45;18.18;75.65
73750;SHT30;62058;48.406;-4.514;2022-10-15T11:30:31;18.25;75.70
73750;SHT30;62058;48.406;-4.514;2022-10-15T11:41:49;18.39;73.52
73750;SHT30;62058;48.406;-4.514;2022-10-15T11:44:34;18.49;72.63
73750;SHT30;62058;48.406;-4.514;2022-10-15T11:50:29;18.68;72.23
73750;SHT30;62058;48.406;-4.514;2022-10-15T11:58:06;18.82;73.54
73750;SHT30;62058;48.406;-4.514;2022-10-15T12:01:05;18.86;73.60
73750;SHT30;62058;48.406;-4.514;2022-10-15T12:03:49;18.92;72.89
73750;SHT30;62058;48.406;-4.514;2022-10-15T12:06:18;18.96;73.44
73750;SHT30;62058;48.406;-4.514;2022-10-15T12:08:46;19.12;72.52
73750;SHT30;62058;48.406;-4.514;2022-10-15T12:11:20;19.23;71.47
73750;SHT30;62058;48.406;-4.514;2022-10-15T12:15:03;19.40;71.08
73750;SHT30;62058;48.406;-4.514;2022-10-15T12:17:00;19.96;70.99
73750;SHT30;62058;48.406;-4.514;2022-10-15T12:19:37;20.39;70.97
73750;SHT30;62058;48.406;-4.514;2022-10-15T12:22:06;20.62;68.04
73750;SHT30;62058;48.406;-4.514;2022-10-15T12:29:45;21.31;66.90
73750;SHT30;62058;48.406;-4.514;2022-10-15T12:32:22;21.23;66.32
73750;SHT30;62058;48.406;-4.514;2022-10-15T12:34:56;21.08;67.58
73750;SHT30;62058;48.406;-4.514;2022-10-15T12:37:26;21.01;67.90
73750;SHT30;62058;48.406;-4.514;2022-10-15T12:42:54;21.72;67.07
73750;SHT30;62058;48.406;-4.514;2022-10-15T12:45:23;21.96;65.67
73750;SHT30;62058;48.406;-4.514;2022-10-15T12:50:28;21.75;63.60
73750;SHT30;62058;48.406;-4.514;2022-10-15T12:52:59;21.99;63.54
73750;SHT30;62058;48.406;-4.514;2022-10-15T12:55:39;22.19;63.45
73750;SHT30;62058;48.406;-4.514;2022-10-15T13:00:55;22.68;63.06
73750;SHT30;62058;48.406;-4.514;2022-10-15T13:03:29;22.64;61.74
73750;SHT30;62058;48.406;-4.514;2022-10-15T13:09:19;22.90;62.40
73750;SHT30;62058;48.406;-4.514;2022-10-15T13:14:32;21.57;62.93
73750;SHT30;62058;48.406;-4.514;2022-10-15T13:17:04;21.18;64.35
73750;SHT30;62058;48.406;-4.514;2022-10-15T13:19:37;20.80;65.81
73750;SHT30;62058;48.406;-4.514;2022-10-15T13:22:06;20.47;67.65
73750;SHT30;62058;48.406;-4.514;2022-10-15T13:24:44;20.24;68.89
73750;SHT30;62058;48.406;-4.514;2022-10-15T13:27:20;19.70;70.42
73750;SHT30;62058;48.406;-4.514;2022-10-15T13:30:13;19.63;72.42
73750;SHT30;62058;48.406;-4.514;2022-10-15T13:32:46;19.47;72.85
73750;SHT30;62058;48.406;-4.514;2022-10-15T13:35:18;19.46;73.10
73750;SHT30;62058;48.406;-4.514;2022-10-15T13:37:44;19.75;73.17
73750;SHT30;62058;48.406;-4.514;2022-10-15T13:40:19;20.01;70.08
73750;SHT30;62058;48.406;-4.514;2022-10-15T13:43:03;20.18;69.54
73750;SHT30;62058;48.406;-4.514;2022-10-15T13:45:30;20.63;69.79
73750;SHT30;62058;48.406;-4.514;2022-10-15T13:47:56;20.66;69.42
73750;SHT30;62058;48.406;-4.514;2022-10-15T13:55:35;21.07;64.58
73750;SHT30;62058;48.406;-4.514;2022-10-15T13:58:28;21.24;63.53
73750;SHT30;62058;48.406;-4.514;2022-10-15T14:03:26;20.77;64.74
73750;SHT30;62058;48.406;-4.514;2022-10-15T14:05:54;21.17;65.44
73750;SHT30;62058;48.406;-4.514;2022-10-15T14:08:23;21.32;65.33
73750;SHT30;62058;48.406;-4.514;2022-10-15T14:10:52;21.34;62.98
73750;SHT30;62058;48.406;-4.514;2022-10-15T14:13:18;21.62;62.89
73750;SHT30;62058;48.406;-4.514;2022-10-15T14:16:00;22.84;62.36
73750;SHT30;62058;48.406;-4.514;2022-10-15T14:18:38;22.80;60.07
73750;SHT30;62058;48.406;-4.514;2022-10-15T14:21:10;22.74;60.48
73750;SHT30;62058;48.406;-4.514;2022-10-15T14:23:37;22.90;57.88
73750;SHT30;62058;48.406;-4.514;2022-10-15T14:26:03;22.66;61.01
73750;SHT30;62058;48.406;-4.514;2022-10-15T14:28:31;22.71;60.60
73750;SHT30;62058;48.406;-4.514;2022-10-15T14:30:57;22.64;60.24
73750;SHT30;62058;48.406;-4.514;2022-10-15T14:33:34;22.47;60.03
73750;SHT30;62058;48.406;-4.514;2022-10-15T14:36:20;22.40;59.85
73750;SHT30;62058;48.406;-4.514;2022-10-15T14:38:46;22.30;61.47
73750;SHT30;62058;48.406;-4.514;2022-10-15T14:41:31;22.86;62.29
73750;SHT30;62058;48.406;-4.514;2022-10-15T14:46:42;22.35;59.15
73750;SHT30;62058;48.406;-4.514;2022-10-15T14:49:32;21.69;61.22
73750;SHT30;62058;48.406;-4.514;2022-10-15T14:52:05;21.59;63.88
73750;SHT30;62058;48.406;-4.514;2022-10-15T14:54:35;21.24;63.34
73750;SHT30;62058;48.406;-4.514;2022-10-15T14:57:02;21.11;64.07
73750;SHT30;62058;48.406;-4.514;2022-10-15T14:59:31;20.94;65.20
73750;SHT30;62058;48.406;-4.514;2022-10-15T15:01:59;20.69;65.12
73750;SHT30;62058;48.406;-4.514;2022-10-15T15:04:40;20.60;66.83
73750;SHT30;62058;48.406;-4.514;2022-10-15T15:07:11;20.70;66.47
73750;SHT30;62058;48.406;-4.514;2022-10-15T15:09:37;20.76;65.38
73750;SHT30;62058;48.406;-4.514;2022-10-15T15:12:04;20.57;66.04
73750;SHT30;62058;48.406;-4.514;2022-10-15T15:14:30;20.30;67.10
73750;SHT30;62058;48.406;-4.514;2022-10-15T15:16:55;20.26;67.94
73750;SHT30;62058;48.406;-4.514;2022-10-15T15:19:20;20.30;68.49
73750;SHT30;62058;48.406;-4.514;2022-10-15T15:21:46;20.14;68.06
73750;SHT30;62058;48.406;-4.514;2022-10-15T15:24:11;20.19;68.45
73750;SHT30;62058;48.406;-4.514;2022-10-15T15:26:37;20.35;68.24
73750;SHT30;62058;48.406;-4.514;2022-10-15T15:29:10;20.81;66.43
73750;SHT30;62058;48.406;-4.514;2022-10-15T15:31:36;21.52;65.64
73750;SHT30;62058;48.406;-4.514;2022-10-15T15:34:01;21.30;65.80
73750;SHT30;62058;48.406;-4.514;2022-10-15T15:36:26;20.86;65.77
73750;SHT30;62058;48.406;-4.514;2022-10-15T15:38:53;20.57;67.15
73750;SHT30;62058;48.406;-4.514;2022-10-15T15:41:23;20.29;67.38
73750;SHT30;62058;48.406;-4.514;2022-10-15T15:43:49;19.70;68.14
73750;SHT30;62058;48.406;-4.514;2022-10-15T15:46:15;19.65;69.31
73750;SHT30;62058;48.406;-4.514;2022-10-15T15:48:41;19.43;69.81
73750;SHT30;62058;48.406;-4.514;2022-10-15T15:51:27;19.16;70.92
73750;SHT30;62058;48.406;-4.514;2022-10-15T15:53:53;18.85;71.27
73750;SHT30;62058;48.406;-4.514;2022-10-15T15:56:19;18.44;77.98
73750;SHT30;62058;48.406;-4.514;2022-10-15T15:58:45;17.65;80.58
73750;SHT30;62058;48.406;-4.514;2022-10-15T16:01:10;17.22;80.57
73750;SHT30;62058;48.406;-4.514;2022-10-15T16:03:36;16.95;81.91
73750;SHT30;62058;48.406;-4.514;2022-10-15T16:06:03;16.89;82.23
73750;SHT30;62058;48.406;-4.514;2022-10-15T16:08:29;16.86;81.49
73750;SHT30;62058;48.406;-4.514;2022-10-15T16:10:54;16.71;82.25
73750;SHT30;62058;48.406;-4.514;2022-10-15T16:13:19;16.51;81.60
73750;SHT30;62058;48.406;-4.514;2022-10-15T16:15:45;16.41;83.16
73750;SHT30;62058;48.406;-4.514;2022-10-15T16:18:10;16.37;82.69
73750;SHT30;62058;48.406;-4.514;2022-10-15T16:20:36;16.28;81.65
73750;SHT30;62058;48.406;-4.514;2022-10-15T16:23:04;16.33;83.53
73750;SHT30;62058;48.406;-4.514;2022-10-15T16:25:29;16.33;83.12
73750;SHT30;62058;48.406;-4.514;2022-10-15T16:27:55;16.21;81.27
73750;SHT30;62058;48.406;-4.514;2022-10-15T16:30:21;16.11;81.29
73750;SHT30;62058;48.406;-4.514;2022-10-15T16:32:46;16.25;84.35
73750;SHT30;62058;48.406;-4.514;2022-10-15T16:35:12;16.27;81.67
73750;SHT30;62058;48.406;-4.514;2022-10-15T16:37:37;16.34;81.02
73750;SHT30;62058;48.406;-4.514;2022-10-15T16:40:03;16.40;82.83
73750;SHT30;62058;48.406;-4.514;2022-10-15T16:42:29;16.35;80.16
73750;SHT30;62058;48.406;-4.514;2022-10-15T16:44:54;16.27;81.76
73750;SHT30;62058;48.406;-4.514;2022-10-15T16:47:19;16.21;80.16
73750;SHT30;62058;48.406;-4.514;2022-10-15T16:49:47;16.20;81.63
73750;SHT30;62058;48.406;-4.514;2022-10-15T16:52:13;15.96;80.14
73750;SHT30;62058;48.406;-4.514;2022-10-15T16:54:38;15.93;81.01
73750;SHT30;62058;48.406;-4.514;2022-10-15T16:57:03;15.93;82.16
73750;SHT30;62058;48.406;-4.514;2022-10-15T16:59:29;15.83;79.28
73750;SHT30;62058;48.406;-4.514;2022-10-15T17:01:54;15.86;80.61
73750;SHT30;62058;48.406;-4.514;2022-10-15T17:04:20;15.85;80.21
73750;SHT30;62058;48.406;-4.514;2022-10-15T17:06:45;15.74;80.11
73750;SHT30;62058;48.406;-4.514;2022-10-15T17:09:11;15.67;80.04
73750;SHT30;62058;48.406;-4.514;2022-10-15T17:11:41;15.69;81.63
73750;SHT30;62058;48.406;-4.514;2022-10-15T17:14:08;15.69;81.82
73750;SHT30;62058;48.406;-4.514;2022-10-15T17:16:41;15.66;81.64